Time;durP1;ratioP1;P1;durP2;ratioP2;P2;SDS_P1;SDS_P2;PMS_P1;PMS_P2;Temp;Humidity;BMP_temperature;BMP_pressure;BME280_temperature;BME280_humidity;BME280_pressure;Samples;Min_cycle;Max_cycle;Signal;HPM_P1;HPM_P2
2024/01/14 00:01:37;;;;;;;49.92;28.17;;;;;;;-2.75;100.00;100069.53;5608102;31;34948;-70
2024/01/14 00:04:41;;;;;;;49.15;27.70;;;;;;;-2.78;100.00;100049.81;5608075;31;34289;-69
2024/01/14 00:07:44;;;;;;;45.80;27.98;;;;;;;-2.77;100.00;100061.88;5608527;31;34613;-69
2024/01/14 00:10:47;;;;;;;48.95;28.02;;;;;;;-2.86;100.00;100075.41;5608237;31;35003;-69
2024/01/14 00:13:50;;;;;;;53.70;30.27;;;;;;;-2.93;100.00;100071.47;5607310;31;35014;-69
2024/01/14 00:16:53;;;;;;;48.53;28.02;;;;;;;-2.93;100.00;100062.84;5608120;31;35097;-68
2024/01/14 00:19:56;;;;;;;48.13;27.67;;;;;;;-3.05;100.00;100063.59;5594265;31;34436;-69
2024/01/14 00:22:59;;;;;;;45.50;27.02;;;;;;;-3.01;100.00;100058.13;5608238;31;34362;-69
2024/01/14 00:26:02;;;;;;;38.05;23.23;;;;;;;-2.83;100.00;100051.84;5607948;31;35083;-68
2024/01/14 00:29:07;;;;;;;44.92;26.20;;;;;;;-2.74;100.00;100051.28;5608401;31;34948;-68
2024/01/14 00:32:10;;;;;;;14.90;5.57;;;;;;;-2.71;100.00;100063.28;5607980;31;34951;-69
2024/01/14 00:35:13;;;;;;;40.70;23.98;;;;;;;-2.85;100.00;100042.47;5607117;31;34963;-69
2024/01/14 00:38:16;;;;;;;40.28;23.35;;;;;;;-2.95;100.00;100047.37;5607899;31;34293;-69
2024/01/14 00:41:20;;;;;;;43.42;25.52;;;;;;;-3.01;100.00;100057.28;5607671;31;34240;-69
2024/01/14 00:44:23;;;;;;;7.47;3.50;;;;;;;-2.92;100.00;100052.41;5608136;31;34923;-69
2024/01/14 00:47:30;;;;;;;36.78;22.87;;;;;;;-2.74;100.00;100047.88;5607352;31;33693;-69
2024/01/14 00:50:33;;;;;;;13.00;5.25;;;;;;;-2.78;100.00;100056.75;5607668;31;34287;-69
2024/01/14 00:53:36;;;;;;;40.95;23.58;;;;;;;-2.79;100.00;100048.13;5607476;31;34441;-69
2024/01/14 00:56:39;;;;;;;44.67;26.10;;;;;;;-2.85;100.00;100051.09;5607466;31;34234;-69
2024/01/14 00:59:43;;;;;;;44.97;25.37;;;;;;;-2.82;100.00;100037.13;5607679;31;34369;-69
2024/01/14 01:02:45;;;;;;;11.02;4.82;;;;;;;-2.93;100.00;100034.31;5607685;31;34921;-69
2024/01/14 01:05:49;;;;;;;38.00;23.15;;;;;;;-2.89;100.00;100026.25;5607913;31;34336;-69
2024/01/14 01:08:51;;;;;;;38.15;21.35;;;;;;;-2.83;100.00;100007.72;5609175;31;35068;-69
2024/01/14 01:11:54;;;;;;;14.50;5.30;;;;;;;-2.78;100.00;100004.84;5609845;31;35077;-69
2024/01/14 01:15:00;;;;;;;36.60;21.30;;;;;;;-2.72;100.00;99999.28;5609671;31;34365;-69
2024/01/14 01:18:04;;;;;;;36.00;21.77;;;;;;;-2.75;100.00;99997.69;5609621;31;34423;-69
2024/01/14 01:21:07;;;;;;;32.78;20.48;;;;;;;-2.72;100.00;99999.28;5609711;31;34355;-69
2024/01/14 01:24:13;;;;;;;33.80;20.67;;;;;;;-2.72;100.00;100004.47;5609815;31;34263;-71
2024/01/14 01:27:20;;;;;;;11.15;3.55;;;;;;;-2.73;100.00;99979.44;5609764;31;35033;-69
2024/01/14 01:30:23;;;;;;;34.25;20.52;;;;;;;-2.66;100.00;99978.13;5609972;31;34458;-71
2024/01/14 01:33:26;;;;;;;33.95;20.67;;;;;;;-2.73;100.00;99969.91;5609540;31;34465;-70
2024/01/14 01:36:29;;;;;;;36.25;21.62;;;;;;;-2.73;100.00;99969.91;5609893;31;34359;-69
2024/01/14 01:39:33;;;;;;;12.02;4.32;;;;;;;-2.78;100.00;99974.53;5609699;31;34249;-70
2024/01/14 01:42:39;;;;;;;7.37;4.07;;;;;;;-2.82;100.00;99978.25;5610009;31;35018;-69
2024/01/14 01:45:42;;;;;;;30.92;19.50;;;;;;;-2.83;100.00;99960.16;5609741;31;35370;-69
2024/01/14 01:48:46;;;;;;;15.43;3.95;;;;;;;-2.80;100.00;99944.38;5609931;31;34384;-70
2024/01/14 01:51:50;;;;;;;36.47;21.00;;;;;;;-2.83;100.00;99939.41;5609936;31;35104;-69
2024/01/14 01:54:54;;;;;;;31.45;19.62;;;;;;;-2.85;100.00;99942.06;5609840;31;35028;-69
2024/01/14 01:57:57;;;;;;;29.70;19.10;;;;;;;-2.76;100.00;99943.31;5609403;31;34376;-70
2024/01/14 02:01:09;;;;;;;29.58;18.35;;;;;;;-2.81;100.00;99946.16;5609709;31;34535;-69
2024/01/14 02:04:23;;;;;;;30.05;18.30;;;;;;;-2.81;100.00;99946.16;5609422;31;34393;-67
2024/01/14 02:07:27;;;;;;;31.02;19.27;;;;;;;-2.75;100.00;99956.16;5608779;31;34649;-69
2024/01/14 02:10:30;;;;;;;7.37;2.97;;;;;;;-2.85;100.00;99943.84;5609593;31;35123;-69
2024/01/14 02:13:34;;;;;;;29.30;18.85;;;;;;;-2.86;100.00;99931.81;5609377;31;34464;-68
2024/01/14 02:16:44;;;;;;;;;;;;;;;-2.82;100.00;99936.72;5608658;31;34292;-69
2024/01/14 02:19:47;;;;;;;31.27;19.08;;;;;;;-2.83;100.00;99944.59;5609584;31;34753;-69
2024/01/14 02:22:52;;;;;;;10.60;5.43;;;;;;;-2.97;100.00;99939.41;5609526;31;34950;-69
2024/01/14 02:25:56;;;;;;;31.33;19.17;;;;;;;-2.98;100.00;99924.75;5609175;31;34299;-69
2024/01/14 02:29:01;;;;;;;6.07;3.90;;;;;;;-3.01;100.00;99932.75;5609372;31;34394;-70
2024/01/14 02:32:06;;;;;;;32.00;19.83;;;;;;;-3.04;100.00;99922.53;5609514;31;34464;-70
2024/01/14 02:35:10;;;;;;;7.25;4.05;;;;;;;-3.22;100.00;99919.28;5609392;31;34289;-69
2024/01/14 02:38:13;;;;;;;33.72;20.48;;;;;;;-3.32;100.00;99931.16;5609406;31;34919;-68
2024/01/14 02:41:16;;;;;;;32.72;21.12;;;;;;;-3.33;100.00;99908.72;5608417;31;34922;-68
2024/01/14 02:44:19;;;;;;;11.70;4.53;;;;;;;-3.38;100.00;99919.38;5608190;31;34299;-68
2024/01/14 02:47:22;;;;;;;32.17;19.40;;;;;;;-3.43;100.00;99913.62;5608908;31;34355;-67
2024/01/14 02:50:25;;;;;;;14.38;3.72;;;;;;;-3.13;100.00;99919.56;5608099;31;35111;-68
2024/01/14 02:53:28;;;;;;;29.52;18.58;;;;;;;-3.10;100.00;99908.19;5608917;31;34275;-68
2024/01/14 02:56:31;;;;;;;28.83;18.25;;;;;;;-3.10;100.00;99914.19;5608208;31;34466;-69
2024/01/14 02:59:35;;;;;;;6.22;2.85;;;;;;;-3.05;100.00;99923.47;5608947;31;34229;-69
2024/01/14 03:02:38;;;;;;;30.92;19.12;;;;;;;-3.02;100.00;99916.34;5608996;31;35200;-69
2024/01/14 03:05:41;;;;;;;7.10;4.00;;;;;;;-3.15;100.00;99908.44;5608893;31;34481;-69
2024/01/14 03:08:44;;;;;;;30.88;18.75;;;;;;;-3.19;100.00;99904.38;5608835;31;34324;-69
2024/01/14 03:11:47;;;;;;;31.87;19.62;;;;;;;-3.15;100.00;99911.03;5609034;31;34601;-69
2024/01/14 03:14:50;;;;;;;29.90;18.67;;;;;;;-3.03;100.00;99895.66;5608621;31;34119;-69
2024/01/14 03:17:53;;;;;;;5.87;3.20;;;;;;;-2.96;100.00;99891.78;5608800;31;34374;-69
2024/01/14 03:20:57;;;;;;;30.42;19.42;;;;;;;-2.88;100.00;99882.59;5608734;31;34980;-69
2024/01/14 03:23:59;;;;;;;10.35;3.90;;;;;;;-2.85;100.00;99878.94;5608710;31;34302;-69
2024/01/14 03:27:04;;;;;;;27.92;18.52;;;;;;;-2.79;100.00;99873.38;5608625;31;34418;-69
2024/01/14 03:30:07;;;;;;;9.80;4.32;;;;;;;-2.76;100.00;99875.81;5608557;31;34322;-69
2024/01/14 03:33:12;;;;;;;30.95;18.80;;;;;;;-2.79;100.00;99873.38;5607985;31;34347;-69
2024/01/14 03:36:16;;;;;;;4.65;2.25;;;;;;;-2.75;100.00;99877.44;5607847;31;34397;-69
2024/01/14 03:39:19;;;;;;;27.87;18.73;;;;;;;-2.77;100.00;99872.37;5607895;31;35258;-68
2024/01/14 03:42:22;;;;;;;32.35;18.92;;;;;;;-2.79;100.00;99865.59;5608604;31;34572;-69
2024/01/14 03:45:25;;;;;;;32.10;19.30;;;;;;;-2.75;100.00;99869.66;5608888;31;34980;-68
2024/01/14 03:48:27;;;;;;;11.05;4.62;;;;;;;-2.80;100.00;99875.12;5608579;31;34472;-68
2024/01/14 03:51:31;;;;;;;8.63;3.62;;;;;;;-2.82;100.00;99878.78;5607921;31;34494;-68
2024/01/14 03:54:34;;;;;;;31.37;20.12;;;;;;;-2.83;100.00;99874.50;5607752;31;34368;-69
2024/01/14 03:57:37;;;;;;;5.47;3.70;;;;;;;-2.85;100.00;99873.75;5608650;31;34304;-69
2024/01/14 04:00:40;;;;;;;32.22;19.98;;;;;;;-2.84;100.00;99876.25;5608498;31;35968;-68
2024/01/14 04:03:43;;;;;;;10.07;3.87;;;;;;;-2.88;100.00;99871.37;5608641;31;35685;-68
2024/01/14 04:06:46;;;;;;;31.55;19.75;;;;;;;-2.90;100.00;99875.81;5607591;31;34370;-69
2024/01/14 04:09:50;;;;;;;32.25;19.33;;;;;;;-2.93;100.00;99865.63;5608398;31;34507;-69
2024/01/14 04:12:53;;;;;;;6.72;3.40;;;;;;;-2.90;100.00;99855.87;5608381;31;34372;-69
2024/01/14 04:15:56;;;;;;;7.43;3.97;;;;;;;-2.91;100.00;99863.78;5608135;31;34329;-69
2024/01/14 04:19:03;;;;;;;31.12;20.08;;;;;;;-2.92;100.00;99860.34;5604137;31;127085;-69
2024/01/14 04:22:06;;;;;;;7.80;4.43;;;;;;;-2.94;100.00;99859.59;5607868;31;34553;-69
2024/01/14 04:25:09;;;;;;;32.03;20.17;;;;;;;-2.99;100.00;99864.25;5608253;31;35545;-69
2024/01/14 04:28:12;;;;;;;4.60;3.03;;;;;;;-2.95;100.00;99849.34;5608070;31;34353;-69
2024/01/14 04:31:16;;;;;;;32.53;20.90;;;;;;;-2.95;100.00;99849.34;5608430;31;35152;-69
2024/01/14 04:34:19;;;;;;;12.98;3.78;;;;;;;-2.96;100.00;99855.44;5608014;31;34231;-69
2024/01/14 04:37:22;;;;;;;32.03;19.30;;;;;;;-2.96;100.00;99852.84;5607244;31;34962;-69
2024/01/14 04:40:25;;;;;;;30.80;19.83;;;;;;;-2.93;100.00;99843.09;5606805;31;34954;-68
2024/01/14 04:43:28;;;;;;;9.57;3.20;;;;;;;-2.93;100.00;99835.31;5608257;31;34295;-69
2024/01/14 04:46:31;;;;;;;32.15;20.37;;;;;;;-2.85;100.00;99837.41;5607987;31;34258;-69
2024/01/14 04:49:34;;;;;;;11.43;3.97;;;;;;;-2.89;100.00;99843.75;5608204;31;34243;-68
2024/01/14 04:52:37;;;;;;;34.65;21.58;;;;;;;-2.90;100.00;99829.94;5607853;31;34360;-69
2024/01/14 04:55:40;;;;;;;6.53;3.55;;;;;;;-2.90;100.00;99832.53;5607606;31;34414;-69
2024/01/14 04:58:42;;;;;;;33.63;21.27;;;;;;;-2.94;100.00;99838.84;5607729;31;34337;-68
2024/01/14 05:01:45;;;;;;;4.93;3.00;;;;;;;-2.98;100.00;99847.75;5607599;31;34447;-69
2024/01/14 05:04:49;;;;;;;37.97;22.20;;;;;;;-3.03;100.00;99841.16;5607634;31;34518;-69
2024/01/14 05:07:52;;;;;;;37.25;22.35;;;;;;;-3.04;100.00;99848.13;5606690;31;35140;-69
2024/01/14 05:10:55;;;;;;;12.90;4.47;;;;;;;-2.92;100.00;99855.16;5607433;31;34347;-69
2024/01/14 05:13:58;;;;;;;13.10;5.68;;;;;;;-2.93;100.00;99848.28;5607314;31;34287;-69
2024/01/14 05:17:01;;;;;;;40.17;24.42;;;;;;;-3.05;100.00;99856.03;5607220;31;34456;-69
2024/01/14 05:20:05;;;;;;;38.22;23.40;;;;;;;-3.08;100.00;99849.25;5607108;31;34418;-69
2024/01/14 05:23:09;;;;;;;12.10;5.15;;;;;;;-3.18;100.00;99840.34;5607196;31;33923;-69
2024/01/14 05:26:12;;;;;;;43.45;25.30;;;;;;;-3.09;100.00;99845.81;5607144;31;35068;-69
2024/01/14 05:29:15;;;;;;;41.80;25.67;;;;;;;-3.11;100.00;99839.06;5607132;31;34511;-69
2024/01/14 05:32:18;;;;;;;45.42;27.05;;;;;;;-3.08;100.00;99839.69;5607372;31;34367;-69
2024/01/14 05:35:21;;;;;;;12.80;5.43;;;;;;;-3.09;100.00;99851.00;5607349;31;34543;-69
2024/01/14 05:38:24;;;;;;;45.40;26.83;;;;;;;-3.12;100.00;99846.00;5606139;31;34302;-68
2024/01/14 05:41:27;;;;;;;13.00;4.62;;;;;;;-3.04;100.00;99847.28;5606069;31;34921;-69
2024/01/14 05:44:31;;;;;;;49.70;29.10;;;;;;;-2.99;100.00;99842.63;5606886;31;34920;-68
2024/01/14 05:47:34;;;;;;;48.53;27.60;;;;;;;-2.94;100.00;99844.03;5606317;31;34957;-69
2024/01/14 05:50:37;;;;;;;14.32;5.40;;;;;;;-2.87;100.00;99844.47;5606950;31;34374;-69
2024/01/14 05:53:40;;;;;;;46.60;27.70;;;;;;;-2.96;100.00;99845.06;5609724;31;34959;-69
2024/01/14 05:56:44;;;;;;;48.15;28.05;;;;;;;-2.98;100.00;99837.38;5609611;31;34417;-69
2024/01/14 05:59:47;;;;;;;49.25;29.70;;;;;;;-3.15;100.00;99841.00;5609640;31;34417;-69
2024/01/14 06:02:50;;;;;;;15.40;6.75;;;;;;;-3.21;100.00;99845.75;5609878;31;34319;-69
2024/01/14 06:05:53;;;;;;;48.72;28.73;;;;;;;-3.34;100.00;99834.47;5609433;31;35391;-69
2024/01/14 06:08:57;;;;;;;14.18;6.93;;;;;;;-3.35;100.00;99828.44;5609487;31;34335;-69
2024/01/14 06:11:59;;;;;;;51.15;29.02;;;;;;;-3.35;100.00;99825.00;5609475;31;35067;-69
2024/01/14 06:15:03;;;;;;;49.38;29.98;;;;;;;-3.39;100.00;99824.38;5609446;31;35124;-69
2024/01/14 06:18:06;;;;;;;12.80;7.22;;;;;;;-3.25;100.00;99834.72;5609379;31;34949;-69
2024/01/14 06:21:09;;;;;;;50.05;30.45;;;;;;;-3.18;100.00;99840.34;5609421;31;34385;-69
2024/01/14 06:24:13;;;;;;;53.03;30.17;;;;;;;-3.26;100.00;99835.66;5609483;31;34997;-69
2024/01/14 06:27:16;;;;;;;53.42;30.45;;;;;;;-3.28;100.00;99836.66;5609188;31;34466;-69
2024/01/14 06:30:19;;;;;;;15.20;7.07;;;;;;;-3.21;100.00;99830.19;5608854;31;34643;-68
2024/01/14 06:33:22;;;;;;;54.08;32.17;;;;;;;-3.12;100.00;99832.19;5609104;31;34545;-68
2024/01/14 06:36:25;;;;;;;52.97;31.60;;;;;;;-3.03;100.00;99826.44;5609340;31;34482;-68
2024/01/14 06:39:28;;;;;;;57.00;31.87;;;;;;;-2.96;100.00;99825.16;5609020;31;34414;-68
2024/01/14 06:42:31;;;;;;;8.18;4.82;;;;;;;-3.13;100.00;99828.78;5609065;31;34292;-68
2024/01/14 06:45:34;;;;;;;55.05;31.37;;;;;;;-3.05;100.00;99843.03;5609252;31;34305;-68
2024/01/14 06:48:38;;;;;;;14.32;6.87;;;;;;;-3.09;100.00;99840.63;5608142;31;34459;-68
2024/01/14 06:51:42;;;;;;;53.65;31.45;;;;;;;-3.15;100.00;99835.00;5608010;31;34364;-68
2024/01/14 06:54:46;;;;;;;57.58;33.42;;;;;;;-3.19;100.00;99828.31;5608038;31;35043;-68
2024/01/14 06:57:48;;;;;;;53.92;31.95;;;;;;;-3.16;100.00;99830.72;5609024;31;34385;-71
2024/01/14 07:00:52;;;;;;;11.45;6.75;;;;;;;-3.13;100.00;99827.94;5608857;31;33851;-70
2024/01/14 07:03:55;;;;;;;60.22;33.67;;;;;;;-3.02;100.00;99833.31;5608119;31;34258;-68
2024/01/14 07:06:58;;;;;;;17.27;7.37;;;;;;;-2.91;100.00;99830.88;5608841;31;34342;-69
2024/01/14 07:10:01;;;;;;;58.53;33.53;;;;;;;-2.91;100.00;99828.28;5607937;31;34476;-70
2024/01/14 07:13:04;;;;;;;55.80;33.25;;;;;;;-2.76;100.00;99834.28;5608939;31;34452;-69
2024/01/14 07:16:07;;;;;;;54.92;32.05;;;;;;;-2.62;100.00;99843.78;5609207;31;34404;-69
2024/01/14 07:19:10;;;;;;;16.50;5.85;;;;;;;-2.51;100.00;99847.34;5608682;31;34414;-69
2024/01/14 07:22:13;;;;;;;55.17;32.28;;;;;;;-2.49;100.00;99852.44;5608942;31;34308;-70
2024/01/14 07:25:17;;;;;;;54.13;31.80;;;;;;;-2.41;100.00;99840.63;5608862;31;35015;-69
2024/01/14 07:28:20;;;;;;;57.42;33.45;;;;;;;-2.20;100.00;99847.03;5609063;31;34554;-69
2024/01/14 07:31:27;;;;;;;52.53;31.12;;;;;;;-2.27;100.00;99844.91;5608750;31;34911;-69
2024/01/14 07:34:31;;;;;;;55.22;32.88;;;;;;;-2.36;100.00;99842.91;5608543;31;34434;-70
2024/01/14 07:37:34;;;;;;;54.03;31.77;;;;;;;-2.34;100.00;99841.91;5608147;31;34354;-68
2024/01/14 07:40:37;;;;;;;57.05;32.03;;;;;;;-2.36;100.00;99845.50;5608636;31;34984;-68
2024/01/14 07:43:41;;;;;;;55.58;32.80;;;;;;;-2.28;100.00;99846.69;5607831;31;34291;-68
2024/01/14 07:46:43;;;;;;;53.00;31.45;;;;;;;-2.39;100.00;99851.75;5608518;31;34402;-70
2024/01/14 07:49:49;;;;;;;14.30;5.47;;;;;;;-2.32;100.00;99847.81;5608981;31;34392;-68
2024/01/14 07:52:52;;;;;;;55.50;31.92;;;;;;;-2.35;100.00;99840.22;5608506;31;34956;-68
2024/01/14 07:55:55;;;;;;;52.60;32.67;;;;;;;-2.31;100.00;99846.03;5608545;31;34345;-68
2024/01/14 07:58:58;;;;;;;52.92;30.70;;;;;;;-2.33;100.00;99838.38;5608315;31;34381;-68
2024/01/14 08:02:02;;;;;;;52.28;31.20;;;;;;;-2.18;100.00;99839.16;5608493;31;34982;-69
2024/01/14 08:05:05;;;;;;;53.83;31.75;;;;;;;-2.24;100.00;99835.19;5607708;31;34431;-69
2024/01/14 08:08:08;;;;;;;51.33;30.75;;;;;;;-2.25;100.00;99843.91;5607680;31;34719;-69
2024/01/14 08:11:11;;;;;;;50.40;30.15;;;;;;;-2.03;100.00;99838.09;5608656;31;35007;-68
2024/01/14 08:14:14;;;;;;;50.05;29.87;;;;;;;-1.73;100.00;99853.44;5608389;31;34385;-69
2024/01/14 08:17:18;;;;;;;46.20;28.15;;;;;;;-1.62;100.00;99855.31;5608130;31;35084;-68
2024/01/14 08:20:20;;;;;;;46.67;28.45;;;;;;;-1.59;100.00;99852.50;5607103;31;34373;-69
2024/01/14 08:23:23;;;;;;;44.75;27.23;;;;;;;-1.54;100.00;99838.25;5607503;31;34990;-69
2024/01/14 08:26:26;;;;;;;45.85;27.83;;;;;;;-1.43;100.00;99848.75;5608250;31;34425;-69
2024/01/14 08:29:31;;;;;;;45.17;27.05;;;;;;;-1.28;100.00;99843.44;5607973;31;34480;-69
2024/01/14 08:32:34;;;;;;;43.53;24.98;;;;;;;-1.27;100.00;99847.72;5608088;31;34433;-69
2024/01/14 08:35:38;;;;;;;39.13;24.25;;;;;;;-1.10;100.00;99847.34;5607783;31;35546;-68
2024/01/14 08:38:41;;;;;;;38.95;23.92;;;;;;;-1.05;100.00;99834.84;5607716;31;35337;-70
2024/01/14 08:41:44;;;;;;;37.30;22.87;;;;;;;-0.91;100.00;99845.12;5607790;31;34649;-69
2024/01/14 08:44:47;;;;;;;37.10;22.73;;;;;;;-0.83;100.00;99850.66;5608112;31;34981;-69
2024/01/14 08:47:50;;;;;;;38.90;23.17;;;;;;;-0.73;100.00;99871.66;5607535;31;34370;-70
2024/01/14 08:50:53;;;;;;;34.15;22.02;;;;;;;-0.51;100.00;99866.56;5606738;31;34381;-69
2024/01/14 08:54:00;;;;;;;39.42;22.48;;;;;;;-0.38;100.00;99867.34;5607506;31;34282;-68
2024/01/14 08:57:03;;;;;;;33.05;21.10;;;;;;;-0.12;100.00;99855.84;5606223;31;34413;-69
2024/01/14 09:00:09;;;;;;;34.83;21.15;;;;;;;0.12;100.00;99853.22;5607622;31;34331;-69
2024/01/14 09:03:12;;;;;;;32.55;20.58;;;;;;;0.33;100.00;99856.00;5607281;31;34507;-70
2024/01/14 09:06:16;;;;;;;32.28;19.42;;;;;;;0.47;100.00;99861.00;5607655;31;34360;-69
2024/01/14 09:09:20;;;;;;;31.15;19.50;;;;;;;0.46;100.00;99856.72;5607274;31;34555;-69
2024/01/14 09:12:23;;;;;;;30.52;18.80;;;;;;;0.42;100.00;99858.72;5607023;31;34285;-69
2024/01/14 09:15:27;;;;;;;32.65;20.02;;;;;;;0.43;100.00;99860.41;5605964;31;33496;-68
2024/01/14 09:18:30;;;;;;;30.20;18.23;;;;;;;0.54;100.00;99862.16;5603834;31;34376;-71
2024/01/14 09:21:33;;;;;;;32.22;18.73;;;;;;;0.29;100.00;99862.38;5587151;31;35170;-69
2024/01/14 09:24:43;;;;;;;29.70;18.65;;;;;;;0.32;100.00;99868.19;5587481;31;34397;-68
2024/01/14 09:27:47;;;;;;;29.70;18.37;;;;;;;0.30;100.00;99866.63;5576322;31;35037;-69
2024/01/14 09:30:51;;;;;;;32.53;19.15;;;;;;;0.24;100.00;99874.94;5589689;31;34244;-69
2024/01/14 09:33:57;;;;;;;33.08;19.00;;;;;;;0.13;100.00;99867.91;5576030;31;34332;-71
2024/01/14 09:37:00;;;;;;;30.42;19.27;;;;;;;0.21;100.00;99860.34;5590030;31;34367;-70
2024/01/14 09:40:04;;;;;;;29.95;19.37;;;;;;;-0.05;100.00;99851.84;5589914;31;34440;-70
2024/01/14 09:43:11;;;;;;;32.05;19.77;;;;;;;-0.09;100.00;99852.19;5589487;31;33333;-69
2024/01/14 09:46:14;;;;;;;30.80;18.80;;;;;;;-0.01;100.00;99842.88;5575973;31;34665;-70
2024/01/14 09:49:21;;;;;;;27.95;18.10;;;;;;;0.28;100.00;99845.91;5589500;31;34265;-71
2024/01/14 09:52:24;;;;;;;32.42;19.45;;;;;;;0.78;100.00;99842.00;5589357;31;35088;-71
2024/01/14 09:55:28;;;;;;;30.27;18.55;;;;;;;1.08;100.00;99841.41;5589682;31;34450;-71
2024/01/14 09:58:35;;;;;;;28.42;17.62;;;;;;;0.80;100.00;99832.31;5589588;31;34454;-70
2024/01/14 10:01:40;;;;;;;26.70;16.83;;;;;;;0.70;100.00;99822.69;5589159;31;33513;-70
2024/01/14 10:04:43;;;;;;;27.83;16.60;;;;;;;0.83;100.00;99813.78;5575850;31;34439;-70
2024/01/14 10:07:46;;;;;;;24.50;15.55;;;;;;;0.79;100.00;99819.34;5575404;31;34331;-71
2024/01/14 10:10:53;;;;;;;23.58;14.98;;;;;;;0.63;100.00;99817.09;5575669;31;33880;-70
2024/01/14 10:14:00;;;;;;;24.30;14.98;;;;;;;0.78;100.00;99822.91;5576267;31;34243;-72
2024/01/14 10:17:03;;;;;;;24.67;15.48;;;;;;;0.72;100.00;99821.62;5589311;31;34921;-70
2024/01/14 10:20:07;;;;;;;23.90;15.75;;;;;;;0.69;100.00;99813.19;5601769;31;34298;-71
2024/01/14 10:23:09;;;;;;;25.20;16.52;;;;;;;0.68;100.00;99801.91;5609060;31;35152;-71
2024/01/14 10:26:12;;;;;;;24.95;15.35;;;;;;;0.90;100.00;99795.84;5608981;31;34456;-70
2024/01/14 10:29:15;;;;;;;21.12;13.25;;;;;;;0.92;100.00;99787.91;5609115;31;35023;-71
2024/01/14 10:32:19;;;;;;;23.80;14.68;;;;;;;0.96;100.00;99787.53;5608881;31;34522;-70
2024/01/14 10:35:25;;;;;;;23.62;14.98;;;;;;;1.02;100.00;99788.81;5608676;31;34278;-71
2024/01/14 10:38:29;;;;;;;22.80;14.77;;;;;;;1.04;100.00;99792.16;5608178;31;34266;-70
2024/01/14 10:41:32;;;;;;;18.98;12.37;;;;;;;1.06;100.00;99788.47;5609052;31;34505;-71
2024/01/14 10:44:35;;;;;;;18.00;12.30;;;;;;;1.18;100.00;99787.47;5608898;31;34295;-71
2024/01/14 10:47:46;;;;;;;16.60;10.65;;;;;;;1.19;100.00;99777.88;5608948;31;35500;-71
2024/01/14 10:50:52;;;;;;;;;;;;;;;1.26;100.00;99768.56;5609453;31;34563;-71
2024/01/14 10:54:10;;;;;;;15.95;10.80;;;;;;;1.13;100.00;99768.72;5609163;31;34550;-71
2024/01/14 10:57:26;;;;;;;17.17;11.32;;;;;;;1.39;100.00;99768.41;5609085;31;34387;-71
2024/01/14 11:00:34;;;;;;;16.62;11.25;;;;;;;1.48;100.00;99765.88;5608941;31;34879;-71
2024/01/14 11:03:38;;;;;;;17.37;12.00;;;;;;;1.51;100.00;99763.00;5608899;31;34282;-71
2024/01/14 11:06:42;;;;;;;17.90;11.88;;;;;;;1.62;100.00;99756.91;5609003;31;34967;-71
2024/01/14 11:09:46;;;;;;;15.98;10.07;;;;;;;1.68;100.00;99752.03;5608866;31;34386;-71
2024/01/14 11:13:16;;;;;;;18.50;11.70;;;;;;;1.83;100.00;99751.69;5607869;31;34318;-70
2024/01/14 11:16:27;;;;;;;18.42;12.27;;;;;;;1.95;100.00;99764.56;5607415;31;34348;-72
2024/01/14 11:19:35;;;;;;;19.65;12.90;;;;;;;1.88;100.00;99744.31;5608679;31;34342;-72
2024/01/14 11:22:39;;;;;;;20.63;12.30;;;;;;;1.98;100.00;99748.66;5608725;31;34485;-70
2024/01/14 11:25:55;;;;;;;17.48;10.30;;;;;;;2.08;100.00;99753.94;5609028;31;34481;-71
2024/01/14 11:29:03;;;;;;;16.62;9.65;;;;;;;2.29;100.00;99749.47;5609044;31;34271;-72
2024/01/14 11:32:20;;;;;;;12.80;8.68;;;;;;;2.63;100.00;99752.66;5608179;31;34351;-72
2024/01/14 11:35:34;;;;;;;12.98;7.65;;;;;;;2.52;100.00;99745.72;5607987;31;34603;-71
2024/01/14 11:38:54;;;;;;;11.63;7.80;;;;;;;2.50;100.00;99746.81;5608198;31;34292;-71
2024/01/14 11:41:57;;;;;;;12.90;7.80;;;;;;;2.43;100.00;99737.81;5608358;31;34416;-72
2024/01/14 11:45:12;;;;;;;11.25;7.85;;;;;;;2.39;100.00;99742.50;5608166;31;34328;-72
2024/01/14 11:48:15;;;;;;;19.37;8.18;;;;;;;2.53;100.00;99738.69;5608288;31;34400;-72
2024/01/14 11:51:19;;;;;;;11.75;7.65;;;;;;;2.64;100.00;99728.13;5608369;31;34298;-72
2024/01/14 11:54:23;;;;;;;11.82;7.55;;;;;;;2.65;100.00;99708.00;5608546;31;34504;-72
2024/01/14 11:57:26;;;;;;;12.07;7.70;;;;;;;2.60;100.00;99708.41;5608402;31;34322;-71
2024/01/14 12:00:29;;;;;;;11.93;7.82;;;;;;;2.60;100.00;99696.16;5608251;31;35517;-69
2024/01/14 12:03:32;;;;;;;10.45;7.55;;;;;;;2.51;100.00;99694.34;5607556;31;34300;-72
2024/01/14 12:06:47;;;;;;;12.50;7.47;;;;;;;2.38;100.00;99688.50;5608410;31;34151;-71
2024/01/14 12:09:55;;;;;;;11.80;7.20;;;;;;;2.45;100.00;99689.63;5608321;31;34433;-70
2024/01/14 12:13:00;;;;;;;10.60;7.03;;;;;;;2.31;100.00;99676.91;5608382;31;34977;-71
2024/01/14 12:16:03;;;;;;;11.35;7.75;;;;;;;2.50;100.00;99679.59;5607249;31;35535;-71
2024/01/14 12:19:15;;;;;;;11.70;7.37;;;;;;;2.72;100.00;99681.13;5607865;31;34245;-72
2024/01/14 12:22:19;;;;;;;9.55;6.65;;;;;;;3.15;99.74;99667.66;5608178;31;34606;-72
2024/01/14 12:25:22;;;;;;;12.48;6.80;;;;;;;3.50;94.93;99674.97;5608159;31;34429;-72
2024/01/14 12:28:31;;;;;;;10.25;6.87;;;;;;;3.65;91.75;99660.44;5608047;31;34962;-72
2024/01/14 12:31:34;;;;;;;11.23;7.30;;;;;;;3.54;92.87;99665.00;5608014;31;35416;-72
2024/01/14 12:34:57;;;;;;;11.50;7.68;;;;;;;3.39;92.95;99672.47;5607947;31;35304;-74
2024/01/14 12:38:01;;;;;;;10.82;7.53;;;;;;;3.50;90.80;99664.47;5608208;31;34459;-73
2024/01/14 12:41:04;;;;;;;10.95;7.60;;;;;;;3.66;90.54;99658.66;5608072;31;34288;-73
2024/01/14 12:44:07;;;;;;;11.50;8.00;;;;;;;3.66;90.57;99662.12;5607918;31;34229;-73
2024/01/14 12:47:10;;;;;;;11.15;7.45;;;;;;;3.81;88.52;99657.25;5607807;31;34282;-73
2024/01/14 12:50:13;;;;;;;13.73;7.85;;;;;;;4.09;87.03;99653.69;5607857;31;34886;-76
2024/01/14 12:53:16;;;;;;;11.48;7.70;;;;;;;4.27;85.63;99662.47;5607757;31;34371;-74
2024/01/14 12:56:23;;;;;;;10.55;7.62;;;;;;;4.17;85.19;99652.97;5607818;31;34373;-73
2024/01/14 12:59:26;;;;;;;13.05;8.50;;;;;;;4.26;85.38;99645.03;5607579;31;34285;-73
2024/01/14 13:02:29;;;;;;;14.43;9.18;;;;;;;4.40;83.90;99645.56;5609456;31;35193;-72
2024/01/14 13:05:32;;;;;;;14.18;9.50;;;;;;;4.36;84.32;99653.69;5609930;31;34925;-73
2024/01/14 13:08:35;;;;;;;15.73;10.88;;;;;;;4.06;86.89;99653.16;5609914;31;34431;-73
2024/01/14 13:11:39;;;;;;;16.98;10.98;;;;;;;3.82;89.42;99657.13;5609678;31;34407;-73
2024/01/14 13:14:41;;;;;;;15.80;10.80;;;;;;;3.68;91.27;99648.88;5609583;31;34357;-72
2024/01/14 13:17:45;;;;;;;18.75;11.27;;;;;;;3.43;92.18;99647.66;5609698;31;35095;-73
2024/01/14 13:20:47;;;;;;;16.75;11.85;;;;;;;3.06;96.30;99655.41;5609612;31;34531;-73
2024/01/14 13:23:51;;;;;;;17.15;11.07;;;;;;;2.76;100.00;99661.56;5609891;31;34372;-71
2024/01/14 13:27:00;;;;;;;16.83;11.60;;;;;;;2.71;100.00;99660.34;5609883;31;34545;-71
2024/01/14 13:30:04;;;;;;;21.02;12.02;;;;;;;2.47;100.00;99655.47;5610016;31;34574;-71
2024/01/14 13:33:07;;;;;;;18.27;11.63;;;;;;;2.35;100.00;99644.28;5609441;31;34297;-72
2024/01/14 13:36:10;;;;;;;18.30;11.95;;;;;;;2.39;100.00;99650.06;5608818;31;34887;-71
2024/01/14 13:39:13;;;;;;;20.12;11.70;;;;;;;2.35;100.00;99652.13;5608705;31;34437;-71
2024/01/14 13:42:17;;;;;;;23.08;12.45;;;;;;;2.31;100.00;99648.13;5609605;31;34997;-70
2024/01/14 13:45:19;;;;;;;21.23;12.88;;;;;;;2.28;100.00;99653.59;5608978;31;35396;-71
2024/01/14 13:48:23;;;;;;;20.25;13.15;;;;;;;2.16;100.00;99658.13;5609525;31;35105;-72
2024/01/14 13:51:25;;;;;;;19.65;13.10;;;;;;;2.20;100.00;99658.69;5608885;31;34464;-71
2024/01/14 13:54:29;;;;;;;21.87;13.38;;;;;;;2.17;100.00;99658.94;5608210;31;35077;-72
2024/01/14 13:57:32;;;;;;;20.50;12.88;;;;;;;2.07;100.00;99660.69;5609653;31;34881;-71
2024/01/14 14:00:35;;;;;;;21.12;13.05;;;;;;;2.22;100.00;99669.03;5609122;31;34398;-72
2024/01/14 14:03:39;;;;;;;21.20;13.25;;;;;;;2.27;100.00;99665.06;5609513;31;34527;-72